Time;durP1;ratioP1;P1;durP2;ratioP2;P2;SDS_P1;SDS_P2;PMS_P1;PMS_P2;Temp;Humidity;BMP_temperature;BMP_pressure;BME280_temperature;BME280_humidity;BME280_pressure;Samples;Min_cycle;Max_cycle;Signal;HPM_P1;HPM_P2
2021/10/16 00:00:24;;;;;;;10.77;6.78;;;;;;;8.27;59.08;100159.75;4423934;32;33863;-50
2021/10/16 00:02:52;;;;;;;11.00;6.75;;;;;;;8.40;58.54;100156.47;4409744;32;34715;-50
2021/10/16 00:05:19;;;;;;;10.93;6.82;;;;;;;8.40;58.57;100161.66;4423826;32;34485;-51
2021/10/16 00:07:47;;;;;;;11.15;7.10;;;;;;;8.48;58.42;100165.25;4423844;32;33209;-51
2021/10/16 00:10:14;;;;;;;10.20;6.15;;;;;;;8.53;58.56;100163.59;4423637;32;33830;-51
2021/10/16 00:12:42;;;;;;;9.50;6.12;;;;;;;8.48;58.81;100167.81;4423508;32;35648;-50
2021/10/16 00:15:10;;;;;;;8.85;6.05;;;;;;;8.66;58.10;100160.28;4423689;32;35201;-53
2021/10/16 00:17:37;;;;;;;11.52;6.50;;;;;;;8.46;58.55;100166.91;4423655;32;34300;-49
2021/10/16 00:20:06;;;;;;;9.80;6.45;;;;;;;8.51;58.46;100164.41;4423473;32;34588;-49
2021/10/16 00:22:34;;;;;;;10.70;6.55;;;;;;;8.25;59.16;100171.75;4423673;32;35695;-50
2021/10/16 00:25:02;;;;;;;10.13;5.32;;;;;;;8.45;58.48;100162.59;4423515;32;34276;-50
2021/10/16 00:27:30;;;;;;;13.73;6.22;;;;;;;8.68;57.96;100163.75;4423715;32;33194;-51
2021/10/16 00:29:57;;;;;;;8.23;5.78;;;;;;;8.82;57.41;100157.03;4423456;32;33968;-54
2021/10/16 00:32:25;;;;;;;9.85;6.43;;;;;;;8.80;57.25;100156.16;4423391;32;34891;-50
2021/10/16 00:34:53;;;;;;;10.15;6.15;;;;;;;8.80;57.36;100148.38;4423369;32;34990;-50
2021/10/16 00:37:24;;;;;;;9.55;5.80;;;;;;;8.63;58.05;100149.88;4423510;32;33478;-49
2021/10/16 00:39:53;;;;;;;8.27;5.67;;;;;;;8.83;57.58;100148.41;4423398;32;33846;-50
2021/10/16 00:42:21;;;;;;;9.05;5.62;;;;;;;9.11;56.83;100149.59;4423192;32;35520;-50
2021/10/16 00:44:49;;;;;;;8.63;5.72;;;;;;;9.18;57.06;100145.31;4423281;32;34950;-50
2021/10/16 00:47:16;;;;;;;11.57;5.57;;;;;;;9.11;57.75;100139.22;4423234;32;33292;-50
2021/10/16 00:49:44;;;;;;;8.35;5.90;;;;;;;9.14;57.53;100139.25;4423311;32;33861;-50
2021/10/16 00:52:11;;;;;;;12.18;6.47;;;;;;;8.95;58.14;100136.44;4423184;32;35819;-49
2021/10/16 00:54:40;;;;;;;9.00;6.15;;;;;;;8.95;57.89;100136.44;4423265;32;34405;-50
2021/10/16 00:57:10;;;;;;;10.65;6.20;;;;;;;8.93;57.89;100126.03;4423069;32;33474;-50
2021/10/16 00:59:37;;;;;;;14.85;6.20;;;;;;;8.96;57.62;100131.28;4409915;32;35933;-50
2021/10/16 01:02:05;;;;;;;9.45;6.10;;;;;;;9.13;57.37;100131.47;4423061;32;35849;-55
2021/10/16 01:04:33;;;;;;;8.10;5.32;;;;;;;9.26;57.19;100130.72;4423266;32;34282;-49
2021/10/16 01:07:01;;;;;;;8.45;5.75;;;;;;;9.29;57.08;100125.56;4423437;32;33251;-50
2021/10/16 01:09:29;;;;;;;9.30;5.93;;;;;;;9.27;57.37;100127.28;4423426;32;33830;-50
2021/10/16 01:11:56;;;;;;;8.80;5.45;;;;;;;9.39;57.33;100124.78;4423382;32;35626;-51
2021/10/16 01:14:24;;;;;;;9.85;6.25;;;;;;;9.36;57.85;100120.47;4423397;32;33967;-50
2021/10/16 01:16:53;;;;;;;9.55;6.40;;;;;;;9.34;58.12;100122.16;4409473;32;34233;-51
2021/10/16 01:19:22;;;;;;;9.40;6.50;;;;;;;9.29;58.29;100125.56;4423104;32;34092;-50
2021/10/16 01:21:51;;;;;;;8.93;5.85;;;;;;;9.33;58.29;100117.81;4422988;32;34859;-53
2021/10/16 01:24:19;;;;;;;10.20;6.12;;;;;;;9.24;58.59;100119.47;4423044;32;34252;-50
2021/10/16 01:26:49;;;;;;;12.65;5.82;;;;;;;9.38;58.24;100097.09;4423165;32;33640;-52
2021/10/16 01:29:21;;;;;;;7.85;5.20;;;;;;;9.52;57.57;100095.50;4423079;32;33742;-52
2021/10/16 01:31:50;;;;;;;10.95;5.82;;;;;;;9.54;57.47;100098.97;4423094;32;34625;-50
2021/10/16 01:34:18;;;;;;;9.77;5.95;;;;;;;9.54;57.62;100098.97;4423070;32;34974;-50
2021/10/16 01:36:49;;;;;;;11.32;6.03;;;;;;;9.35;58.52;100100.53;4422990;32;34361;-52
2021/10/16 01:39:17;;;;;;;8.10;5.85;;;;;;;9.51;58.19;100098.94;4423098;32;33649;-50
2021/10/16 01:41:46;;;;;;;8.90;5.90;;;;;;;9.46;58.21;100087.66;4422851;32;35757;-51
2021/10/16 01:44:14;;;;;;;9.23;7.05;;;;;;;9.39;58.28;100091.91;4423023;32;34164;-50
2021/10/16 01:46:42;;;;;;;9.52;6.05;;;;;;;9.49;58.03;100087.66;4423068;32;34286;-52
2021/10/16 01:49:16;;;;;;;8.27;5.57;;;;;;;9.51;58.09;100088.53;4423034;32;33670;-51
2021/10/16 01:51:45;;;;;;;9.85;6.20;;;;;;;9.47;58.20;100091.97;4423166;32;34775;-53
2021/10/16 01:54:14;;;;;;;11.38;6.40;;;;;;;9.35;58.55;100097.06;4408476;32;34112;-50
2021/10/16 01:56:44;;;;;;;9.20;6.00;;;;;;;9.52;58.36;100105.88;4422935;32;33879;-53
2021/10/16 01:59:17;;;;;;;10.07;6.60;;;;;;;9.43;58.36;100098.00;4423090;32;33741;-50
2021/10/16 02:02:07;;;;;;;10.52;5.82;;;;;;;9.37;58.38;100105.72;4411827;32;34692;-49
2021/10/16 02:04:36;;;;;;;8.43;5.93;;;;;;;9.43;58.24;100103.22;4409507;32;34214;-50
2021/10/16 02:07:04;;;;;;;10.10;6.00;;;;;;;9.52;57.63;100111.06;4409384;32;33420;-50
2021/10/16 02:09:32;;;;;;;8.10;5.93;;;;;;;9.52;57.88;100118.87;4422758;32;33795;-51
2021/10/16 02:12:00;;;;;;;9.30;6.20;;;;;;;9.66;57.35;100113.78;4422793;32;35647;-49
2021/10/16 02:14:30;;;;;;;10.90;5.22;;;;;;;9.50;57.47;100112.78;4422991;32;33695;-50
2021/10/16 02:16:58;;;;;;;8.75;6.10;;;;;;;9.51;57.59;100115.37;4422976;32;33487;-50
2021/10/16 02:19:27;;;;;;;9.80;6.28;;;;;;;9.47;57.79;100123.13;4422914;32;33573;-51
2021/10/16 02:21:54;;;;;;;8.00;5.85;;;;;;;9.55;57.85;100111.94;4422814;32;34841;-52
2021/10/16 02:24:23;;;;;;;7.82;5.70;;;;;;;9.50;57.77;100115.37;4422909;32;34374;-53
2021/10/16 02:26:51;;;;;;;8.38;5.62;;;;;;;9.73;57.42;100111.25;4422920;32;33472;-53
2021/10/16 02:29:19;;;;;;;7.47;5.65;;;;;;;9.83;57.08;100113.06;4422758;32;34874;-53
2021/10/16 02:31:47;;;;;;;7.68;5.50;;;;;;;9.95;57.01;100112.28;4422503;32;35780;-52
2021/10/16 02:34:15;;;;;;;8.02;5.32;;;;;;;9.90;57.52;100109.66;4422576;32;35229;-53
2021/10/16 02:36:43;;;;;;;12.07;6.28;;;;;;;9.83;57.91;100113.06;4422805;32;33360;-51
2021/10/16 02:39:11;;;;;;;10.05;5.93;;;;;;;9.95;57.46;100113.16;4422770;32;34408;-50
2021/10/16 02:41:38;;;;;;;9.40;6.12;;;;;;;9.88;57.88;100108.78;4422593;32;35112;-51
2021/10/16 02:44:06;;;;;;;8.77;5.53;;;;;;;9.81;58.03;100120.00;4422706;32;35105;-51
2021/10/16 02:46:34;;;;;;;9.43;5.70;;;;;;;9.92;57.83;100118.31;4422471;32;33261;-53
2021/10/16 02:49:01;;;;;;;8.73;5.90;;;;;;;9.88;58.20;100120.91;4422261;32;33753;-51
2021/10/16 02:51:29;;;;;;;8.93;5.95;;;;;;;10.04;57.73;100117.53;4422318;32;35719;-49
2021/10/16 02:53:56;;;;;;;12.52;5.95;;;;;;;9.97;57.87;100106.25;4422563;32;34253;-50
2021/10/16 02:56:25;;;;;;;7.37;5.18;;;;;;;10.08;57.55;100109.78;4422542;32;33255;-49
2021/10/16 02:58:54;;;;;;;8.70;5.47;;;;;;;10.05;57.72;100114.97;4422241;32;33856;-52
2021/10/16 03:01:22;;;;;;;8.55;5.70;;;;;;;10.08;57.74;100114.97;4421990;32;35009;-51
2021/10/16 03:03:50;;;;;;;7.97;5.65;;;;;;;10.16;57.53;100118.53;4422419;32;34418;-50
2021/10/16 03:06:17;;;;;;;9.90;5.70;;;;;;;10.08;57.85;100114.97;4423252;32;34479;-50
2021/10/16 03:08:46;;;;;;;10.75;6.28;;;;;;;10.14;57.41;100117.66;4424293;32;33774;-50
2021/10/16 03:11:15;;;;;;;9.75;6.15;;;;;;;10.18;57.27;100111.63;4424279;32;34657;-51
2021/10/16 03:13:44;;;;;;;11.23;6.28;;;;;;;10.10;57.62;100110.66;4410593;32;34716;-51
2021/10/16 03:16:15;;;;;;;10.48;6.35;;;;;;;10.13;57.88;100112.44;4424303;32;33204;-50
2021/10/16 03:18:44;;;;;;;11.32;6.10;;;;;;;10.29;57.49;100109.09;4424125;32;34089;-50
2021/10/16 03:21:12;;;;;;;8.18;6.18;;;;;;;10.32;57.20;100109.09;4423814;32;34753;-53
2021/10/16 03:23:39;;;;;;;13.57;6.97;;;;;;;10.16;57.62;100110.75;4424252;32;34876;-50
2021/10/16 03:26:07;;;;;;;9.50;5.95;;;;;;;10.17;57.71;100112.47;4423948;32;34255;-50
2021/10/16 03:28:34;;;;;;;8.90;6.68;;;;;;;10.23;57.81;100114.25;4409928;32;34247;-50
2021/10/16 03:31:02;;;;;;;9.13;6.32;;;;;;;10.18;58.21;100108.13;4423771;32;34727;-51
2021/10/16 03:33:30;;;;;;;10.50;6.57;;;;;;;10.08;58.53;100109.78;4423888;32;34348;-52
2021/10/16 03:35:57;;;;;;;10.75;6.53;;;;;;;10.07;58.49;100102.84;4423857;32;34264;-51
2021/10/16 03:38:25;;;;;;;11.05;6.82;;;;;;;10.14;58.17;100109.88;4423867;32;34276;-51
2021/10/16 03:40:52;;;;;;;11.43;6.82;;;;;;;10.24;57.93;100112.50;4424083;32;35630;-50
2021/10/16 03:43:20;;;;;;;10.82;7.32;;;;;;;10.35;57.87;100103.03;4423610;32;34278;-50
2021/10/16 03:45:47;;;;;;;13.00;7.03;;;;;;;10.27;58.15;100105.59;4424019;32;33596;-52
2021/10/16 03:48:16;;;;;;;11.45;7.62;;;;;;;10.32;57.90;100103.88;4423572;32;34660;-51
2021/10/16 03:50:44;;;;;;;10.30;6.95;;;;;;;10.17;57.95;100096.88;4423726;32;35712;-52
2021/10/16 03:53:12;;;;;;;10.43;6.45;;;;;;;10.39;57.38;100102.22;4423608;32;34307;-52
2021/10/16 03:55:40;;;;;;;9.20;6.55;;;;;;;10.46;57.10;100101.37;4409973;32;33503;-52
2021/10/16 03:58:08;;;;;;;11.85;7.62;;;;;;;10.59;57.13;100095.38;4423979;32;33697;-53
2021/10/16 04:00:36;;;;;;;11.07;7.43;;;;;;;10.40;57.58;100096.12;4423607;32;35694;-49
2021/10/16 04:03:05;;;;;;;11.12;6.62;;;;;;;10.53;57.37;100088.37;4423801;32;34391;-49
2021/10/16 04:05:33;;;;;;;12.85;8.00;;;;;;;10.47;57.40;100103.09;4423834;32;33221;-51
2021/10/16 04:08:01;;;;;;;10.05;6.82;;;;;;;10.47;57.38;100103.09;4423911;32;33943;-50
2021/10/16 04:10:32;;;;;;;11.80;6.82;;;;;;;10.36;57.89;100097.00;4423865;32;35772;-51
2021/10/16 04:13:00;;;;;;;10.43;7.40;;;;;;;10.51;57.40;100099.66;4423694;32;35177;-50
2021/10/16 04:15:27;;;;;;;12.27;7.30;;;;;;;10.62;57.11;100097.97;4423814;32;33323;-52
2021/10/16 04:17:55;;;;;;;10.52;7.10;;;;;;;10.54;58.00;100092.75;4422857;32;33790;-53
2021/10/16 04:20:23;;;;;;;10.38;7.40;;;;;;;10.53;58.38;100092.75;4423716;32;34676;-51
2021/10/16 04:22:51;;;;;;;11.73;7.25;;;;;;;10.53;58.91;100097.94;4423364;32;35121;-50
2021/10/16 04:25:18;;;;;;;12.07;7.28;;;;;;;10.48;59.13;100099.66;4423504;32;33273;-52
2021/10/16 04:27:46;;;;;;;10.25;7.35;;;;;;;10.65;58.42;100098.00;4423810;32;33893;-50
2021/10/16 04:30:14;;;;;;;9.40;6.82;;;;;;;10.60;58.50;100107.53;4409815;32;34857;-50
2021/10/16 04:32:42;;;;;;;12.05;8.10;;;;;;;10.73;58.33;100101.50;4423412;32;35036;-49
2021/10/16 04:35:10;;;;;;;11.25;8.07;;;;;;;10.57;59.02;100115.28;4423417;32;34183;-52
2021/10/16 04:37:38;;;;;;;12.18;7.90;;;;;;;10.41;59.52;100109.13;4423326;32;34569;-52
2021/10/16 04:40:22;;;;;;;10.90;8.00;;;;;;;10.28;59.90;100109.06;4423334;32;34756;-53
2021/10/16 04:42:50;;;;;;;13.90;7.45;;;;;;;10.61;58.99;100106.62;4423305;32;34260;-50
2021/10/16 04:45:19;;;;;;;12.23;7.43;;;;;;;10.70;58.65;100101.47;4423576;32;33501;-50
2021/10/16 04:47:46;;;;;;;10.10;7.35;;;;;;;10.60;58.77;100099.72;4396937;32;33810;-51
2021/10/16 04:50:14;;;;;;;10.20;7.75;;;;;;;10.66;58.50;100104.94;4423311;32;35715;-50
2021/10/16 04:52:42;;;;;;;12.52;7.50;;;;;;;10.68;58.44;100104.06;4409694;32;34176;-54
2021/10/16 04:55:10;;;;;;;10.27;7.28;;;;;;;10.65;58.57;100105.81;4423633;32;34021;-52
2021/10/16 04:57:38;;;;;;;10.30;7.18;;;;;;;10.72;58.29;100105.81;4423575;32;33934;-50
2021/10/16 05:00:07;;;;;;;12.85;7.30;;;;;;;10.75;58.31;100107.56;4423485;32;35840;-51
2021/10/16 05:02:36;;;;;;;12.55;7.05;;;;;;;10.74;58.81;100108.44;4423025;32;34243;-51
2021/10/16 05:05:04;;;;;;;12.80;8.00;;;;;;;10.69;59.08;100099.75;4423499;32;34280;-50
2021/10/16 05:07:32;;;;;;;15.07;8.68;;;;;;;10.67;59.16;100104.09;4423460;32;34321;-53
2021/10/16 05:10:02;;;;;;;23.38;14.93;;;;;;;10.69;59.13;100110.16;4423441;32;34610;-50
2021/10/16 05:12:30;;;;;;;21.75;14.82;;;;;;;10.57;59.65;100110.97;4409598;32;34716;-52
2021/10/16 05:14:58;;;;;;;17.17;11.98;;;;;;;10.61;59.48;100109.25;4423460;32;34181;-50
2021/10/16 05:17:26;;;;;;;16.87;10.95;;;;;;;10.69;59.21;100116.22;4423395;32;33953;-52
2021/10/16 05:19:54;;;;;;;16.35;11.05;;;;;;;10.74;59.07;100111.87;4423358;32;34727;-50
2021/10/16 05:22:22;;;;;;;17.33;10.15;;;;;;;10.88;58.66;100118.03;4423194;32;34326;-52
2021/10/16 05:24:49;;;;;;;15.07;10.10;;;;;;;10.80;58.94;100124.06;4409622;32;34314;-51
2021/10/16 05:27:17;;;;;;;16.52;10.57;;;;;;;10.80;58.91;100119.75;4423311;32;34513;-53
2021/10/16 05:29:45;;;;;;;15.90;10.93;;;;;;;10.78;59.15;100118.00;4423294;32;35594;-49
2021/10/16 05:32:12;;;;;;;17.05;10.77;;;;;;;10.91;59.08;100122.34;4422893;32;35082;-49
2021/10/16 05:34:39;;;;;;;16.67;10.98;;;;;;;10.87;59.18;100129.31;4423019;32;33720;-49
2021/10/16 05:37:09;;;;;;;17.95;11.10;;;;;;;10.90;59.17;100131.06;4423305;32;33781;-50
2021/10/16 05:39:36;;;;;;;18.00;10.82;;;;;;;10.85;59.44;100124.94;4423163;32;34693;-50
2021/10/16 05:42:05;;;;;;;15.45;10.63;;;;;;;10.84;59.59;100128.41;4409410;32;34275;-49
2021/10/16 05:44:33;;;;;;;17.62;11.20;;;;;;;10.84;59.74;100124.06;4423122;32;33315;-49
2021/10/16 05:47:01;;;;;;;20.48;12.25;;;;;;;10.84;60.20;100126.69;4423189;32;34262;-52
2021/10/16 05:49:29;;;;;;;26.92;16.33;;;;;;;10.94;59.79;100117.16;4423119;32;34729;-51
2021/10/16 05:51:57;;;;;;;32.83;19.00;;;;;;;10.91;59.90;100132.75;4423224;32;35090;-54
2021/10/16 05:54:24;;;;;;;38.95;20.83;;;;;;;10.94;59.91;100130.19;4422952;32;34243;-49
2021/10/16 05:56:52;;;;;;;37.00;20.95;;;;;;;10.95;60.10;100138.87;4422936;32;34746;-51
2021/10/16 05:59:20;;;;;;;34.83;19.08;;;;;;;11.04;59.89;100134.56;4423111;32;34816;-50
2021/10/16 06:01:48;;;;;;;31.10;18.23;;;;;;;11.14;59.51;100146.75;4422854;32;34741;-50
2021/10/16 06:04:16;;;;;;;37.45;18.58;;;;;;;11.15;59.46;100143.25;4422772;32;33390;-50
2021/10/16 06:06:43;;;;;;;27.55;16.08;;;;;;;11.20;59.37;100141.53;4422887;32;34797;-49
2021/10/16 06:09:10;;;;;;;36.67;18.75;;;;;;;11.21;59.34;100145.91;4422976;32;35572;-51
2021/10/16 06:11:38;;;;;;;37.88;20.12;;;;;;;11.27;59.12;100148.50;4422686;32;35022;-50
2021/10/16 06:14:06;;;;;;;37.72;18.77;;;;;;;11.42;58.75;100145.94;4422966;32;34479;-49
2021/10/16 06:16:34;;;;;;;13.93;7.70;;;;;;;11.41;58.36;100144.19;4422677;32;33762;-53
2021/10/16 06:19:04;;;;;;;12.27;7.78;;;;;;;11.36;56.57;100155.50;4423015;32;35293;-49
2021/10/16 06:21:32;;;;;;;9.75;6.40;;;;;;;11.60;55.03;100157.28;4422791;32;35046;-50
2021/10/16 06:24:00;;;;;;;11.43;6.78;;;;;;;11.43;55.18;100154.63;4422601;32;34350;-51
2021/10/16 06:26:30;;;;;;;11.27;6.80;;;;;;;11.62;54.97;100158.13;4422795;32;34323;-51
2021/10/16 06:28:58;;;;;;;9.80;6.32;;;;;;;11.63;54.83;100162.47;4422812;32;35637;-50
2021/10/16 06:31:25;;;;;;;8.40;6.75;;;;;;;11.77;54.56;100168.59;4422802;32;34582;-50
2021/10/16 06:33:53;;;;;;;9.90;6.30;;;;;;;11.82;54.41;100169.47;4422790;32;34394;-49
2021/10/16 06:36:21;;;;;;;9.75;6.55;;;;;;;11.93;54.23;100173.81;4422585;32;34640;-52
2021/10/16 06:38:48;;;;;;;8.68;6.43;;;;;;;12.01;53.97;100171.22;4422747;32;34662;-49
2021/10/16 06:41:16;;;;;;;13.18;6.50;;;;;;;11.89;54.05;100172.06;4422087;32;34320;-51
2021/10/16 06:43:44;;;;;;;10.52;6.60;;;;;;;11.95;53.56;100171.22;4422706;32;33527;-54
2021/10/16 06:46:13;;;;;;;9.27;6.90;;;;;;;12.02;53.13;100175.56;4422580;32;33955;-53
2021/10/16 06:48:42;;;;;;;8.85;6.07;;;;;;;12.01;53.61;100169.47;4422516;32;35115;-49
2021/10/16 06:51:10;;;;;;;9.68;6.60;;;;;;;12.17;53.46;100173.81;4422448;32;34271;-50
2021/10/16 06:53:38;;;;;;;10.48;6.53;;;;;;;12.27;53.56;100182.50;4408724;32;33528;-50
2021/10/16 06:56:06;;;;;;;8.30;6.43;;;;;;;12.22;53.78;100181.62;4422468;32;33890;-50
2021/10/16 06:58:35;;;;;;;9.63;6.45;;;;;;;12.29;53.93;100174.69;4422149;32;35709;-49
2021/10/16 07:01:02;;;;;;;8.80;6.40;;;;;;;12.17;54.36;100176.41;4422119;32;34361;-50
2021/10/16 07:03:32;;;;;;;8.68;6.60;;;;;;;12.36;53.83;100190.31;4422004;32;33707;-52
2021/10/16 07:05:59;;;;;;;12.00;7.80;;;;;;;12.37;53.78;100181.62;4421674;32;33691;-53
2021/10/16 07:08:30;;;;;;;8.43;5.95;;;;;;;12.25;55.38;100181.62;4421404;32;34744;-50
2021/10/16 07:10:58;;;;;;;11.95;8.55;;;;;;;12.36;72.64;100190.31;4421131;32;34394;-51
2021/10/16 07:13:26;;;;;;;14.57;7.85;;;;;;;12.77;68.15;100190.22;4421700;32;33667;-53
2021/10/16 07:15:53;;;;;;;12.55;8.43;;;;;;;12.77;60.97;100180.66;4421871;32;33923;-50
2021/10/16 07:18:21;;;;;;;13.35;8.70;;;;;;;12.66;58.91;100179.81;4422108;32;35786;-51
2021/10/16 07:20:48;;;;;;;12.43;7.87;;;;;;;12.70;58.65;100186.75;4421918;32;34317;-54
2021/10/16 07:23:36;;;;;;;12.80;8.45;;;;;;;12.69;58.10;100189.41;4407747;32;33962;-53
2021/10/16 07:26:04;;;;;;;14.23;8.45;;;;;;;12.49;58.35;100193.78;4421916;32;33460;-54
2021/10/16 07:28:31;;;;;;;17.87;12.30;;;;;;;12.76;57.12;100196.34;4421858;32;35310;-53
2021/10/16 07:30:59;;;;;;;18.02;13.13;;;;;;;12.56;58.06;100198.97;4407732;32;33670;-52
2021/10/16 07:33:26;;;;;;;22.98;17.17;;;;;;;12.70;57.24;100196.31;4421750;32;33549;-52
2021/10/16 07:35:54;;;;;;;21.58;17.27;;;;;;;12.84;56.79;100198.03;4421497;32;34102;-50
2021/10/16 07:38:21;;;;;;;19.87;14.20;;;;;;;12.96;56.95;100194.50;4407995;32;35441;-53
2021/10/16 07:40:49;;;;;;;16.52;12.77;;;;;;;12.97;56.83;100195.38;4421342;32;34418;-54
2021/10/16 07:43:16;;;;;;;15.68;11.52;;;;;;;13.03;56.58;100195.34;4420786;32;33937;-50
2021/10/16 07:45:44;;;;;;;16.80;10.38;;;;;;;13.14;56.01;100198.84;4421188;32;33830;-54
2021/10/16 07:48:16;;;;;;;15.50;10.38;;;;;;;13.16;55.62;100197.09;4421253;32;34913;-52
2021/10/16 07:50:43;;;;;;;14.07;9.57;;;;;;;13.22;55.31;100199.66;4421553;32;35169;-51
2021/10/16 07:53:11;;;;;;;15.73;10.45;;;;;;;13.09;55.18;100197.97;4408916;32;33616;-51
2021/10/16 07:55:38;;;;;;;14.05;10.07;;;;;;;13.27;54.55;100198.75;4423574;32;34505;-52
2021/10/16 07:58:06;;;;;;;13.90;10.15;;;;;;;13.19;54.71;100197.06;4423560;32;35343;-53
2021/10/16 08:00:33;;;;;;;9.95;8.20;;;;;;;13.33;53.61;100200.50;4423505;32;34311;-50
2021/10/16 08:03:01;;;;;;;19.37;11.25;;;;;;;13.47;53.28;100201.28;4423221;32;34334;-52
2021/10/16 08:05:28;;;;;;;14.87;10.27;;;;;;;13.42;53.24;100203.94;4423440;32;33792;-53
2021/10/16 08:07:56;;;;;;;15.35;9.75;;;;;;;13.61;52.72;100211.66;4423478;32;35650;-51
2021/10/16 08:10:24;;;;;;;13.50;9.57;;;;;;;13.30;51.92;100210.94;4409719;32;34206;-50
2021/10/16 08:12:51;;;;;;;16.62;9.98;;;;;;;13.54;52.39;100206.47;4422774;32;34131;-53
2021/10/16 08:15:19;;;;;;;14.15;8.73;;;;;;;13.74;52.18;100214.16;4423427;32;34617;-51
2021/10/16 08:17:46;;;;;;;13.07;8.45;;;;;;;13.78;51.73;100210.69;4423152;32;34741;-51
2021/10/16 08:20:14;;;;;;;13.48;8.32;;;;;;;14.05;50.86;100212.19;4422907;32;34292;-52
2021/10/16 08:22:43;;;;;;;12.57;8.60;;;;;;;14.18;50.69;100222.59;4423358;32;34488;-52
2021/10/16 08:25:11;;;;;;;11.50;7.72;;;;;;;14.31;50.58;100212.91;4423253;32;34592;-50
2021/10/16 08:27:40;;;;;;;11.05;7.87;;;;;;;14.54;59.73;100215.31;4423306;32;34649;-50
2021/10/16 08:30:09;;;;;;;9.52;7.47;;;;;;;14.80;51.84;100210.69;4409588;32;35175;-50
2021/10/16 08:32:38;;;;;;;9.98;6.90;;;;;;;15.06;51.28;100221.72;4423387;32;34996;-51
2021/10/16 08:35:07;;;;;;;8.02;6.28;;;;;;;15.37;48.91;100217.84;4423360;32;33986;-53
2021/10/16 08:37:35;;;;;;;9.10;6.60;;;;;;;15.73;46.06;100216.53;4423470;32;35659;-51
2021/10/16 08:40:04;;;;;;;9.00;6.15;;;;;;;15.74;45.47;100217.38;4423405;32;34407;-51
2021/10/16 08:42:33;;;;;;;9.68;6.72;;;;;;;15.98;44.69;100215.25;4423337;32;33692;-56
2021/10/16 08:45:04;;;;;;;10.90;7.12;;;;;;;15.82;45.22;100219.00;4422878;32;34797;-53
2021/10/16 08:47:34;;;;;;;11.18;7.87;;;;;;;15.28;45.01;100217.97;4423078;32;34607;-53
2021/10/16 08:50:06;;;;;;;11.68;7.70;;;;;;;15.80;45.16;100212.03;4423594;32;34395;-52
2021/10/16 08:52:33;;;;;;;11.18;7.47;;;;;;;15.59;44.99;100221.94;4423310;32;33688;-51
2021/10/16 08:55:01;;;;;;;11.52;7.78;;;;;;;15.88;44.93;100211.03;4423357;32;34781;-52
2021/10/16 08:57:30;;;;;;;10.30;7.28;;;;;;;15.92;44.44;100217.97;4408791;32;35697;-50
2021/10/16 08:59:59;;;;;;;11.98;8.80;;;;;;;16.04;43.97;100216.94;4421182;32;34565;-50
2021/10/16 09:02:39;;;;;;;11.23;8.35;;;;;;;15.86;44.17;100210.19;4408952;32;33664;-55
2021/10/16 09:05:12;;;;;;;11.80;7.95;;;;;;;15.71;44.27;100214.81;4422812;32;33851;-52
2021/10/16 09:07:39;;;;;;;11.60;9.02;;;;;;;15.96;44.48;100219.66;4423268;32;34870;-52
2021/10/16 09:10:21;;;;;;;13.13;8.90;;;;;;;16.03;43.89;100215.19;4423144;32;35065;-49
2021/10/16 09:12:54;;;;;;;11.50;7.93;;;;;;;15.73;44.08;100220.88;4423181;32;33457;-51
2021/10/16 09:15:22;;;;;;;12.55;8.10;;;;;;;15.68;44.57;100220.09;4422972;32;34738;-50
2021/10/16 09:18:04;;;;;;;12.07;8.43;;;;;;;15.76;44.47;100223.47;4422988;32;35754;-50
2021/10/16 09:20:37;;;;;;;9.80;7.50;;;;;;;15.66;45.27;100224.50;4423174;32;35217;-53
2021/10/16 09:23:09;;;;;;;10.45;7.18;;;;;;;15.86;44.59;100227.69;4423025;32;33609;-49
2021/10/16 09:25:37;;;;;;;13.25;7.45;;;;;;;15.75;44.59;100224.34;4422651;32;34766;-51
2021/10/16 09:28:14;;;;;;;11.18;7.40;;;;;;;15.90;44.96;100224.13;4421161;32;34771;-50
2021/10/16 09:30:46;;;;;;;10.07;6.57;;;;;;;15.99;44.75;100218.75;4408902;32;34613;-50
2021/10/16 09:33:14;;;;;;;8.40;6.35;;;;;;;15.86;45.42;100227.69;4423019;32;34547;-50
2021/10/16 09:35:43;;;;;;;9.40;6.20;;;;;;;16.19;44.50;100222.78;4422848;32;33805;-48
2021/10/16 09:38:10;;;;;;;7.70;5.90;;;;;;;16.03;44.18;100220.44;4421369;32;35699;-55
2021/10/16 09:40:40;;;;;;;7.70;5.85;;;;;;;16.27;44.87;100225.28;4421936;32;35219;-50
2021/10/16 09:43:20;;;;;;;12.45;6.90;;;;;;;16.44;44.79;100230.25;4407696;32;33542;-50
2021/10/16 09:46:11;;;;;;;10.80;7.07;;;;;;;16.39;44.14;100234.72;4421627;32;34005;-49
2021/10/16 09:48:39;;;;;;;11.12;7.10;;;;;;;16.42;43.89;100230.28;4420948;32;34833;-50
2021/10/16 09:51:07;;;;;;;9.73;7.20;;;;;;;16.66;43.60;100223.78;4422227;32;35153;-48
2021/10/16 09:53:39;;;;;;;11.40;7.75;;;;;;;16.78;43.02;100221.75;4422641;32;33537;-51
2021/10/16 09:56:07;;;;;;;10.52;6.80;;;;;;;16.87;43.46;100233.87;4422733;32;33491;-52
2021/10/16 09:58:36;;;;;;;9.55;7.32;;;;;;;16.95;43.15;100231.94;4408477;32;34711;-55
2021/10/16 10:01:04;;;;;;;9.77;7.50;;;;;;;17.15;42.65;100227.19;4422175;32;34743;-50
2021/10/16 10:03:32;;;;;;;8.27;6.57;;;;;;;17.30;42.42;100231.28;4408699;32;33703;-52
2021/10/16 10:06:00;;;;;;;12.20;8.00;;;;;;;17.32;43.41;100243.50;4422402;32;33914;-54
2021/10/16 10:08:28;;;;;;;8.52;6.60;;;;;;;17.35;42.65;100235.53;4422676;32;34954;-51
2021/10/16 10:10:56;;;;;;;11.07;7.97;;;;;;;17.58;42.06;100240.34;4408826;32;35165;-51
2021/10/16 10:13:26;;;;;;;15.27;8.35;;;;;;;17.63;41.90;100233.22;4422696;32;33498;-51
2021/10/16 10:15:55;;;;;;;9.48;7.40;;;;;;;17.72;40.99;100235.66;4421764;32;33760;-51
2021/10/16 10:21:09;;;;;;;12.68;9.23;;;;;;;17.84;41.80;100232.75;4410871;32;34281;-50
2021/10/16 10:23:51;;;;;;;10.45;7.70;;;;;;;17.71;43.92;100228.62;4408869;32;34076;-50
2021/10/16 10:26:33;;;;;;;11.73;9.10;;;;;;;17.84;42.48;100232.75;4422651;32;34617;-49
2021/10/16 10:29:02;;;;;;;12.35;8.88;;;;;;;17.86;42.84;100228.31;4408828;32;35509;-49
2021/10/16 10:31:44;;;;;;;13.27;9.63;;;;;;;17.62;43.38;100231.47;4422522;32;34270;-50
2021/10/16 10:34:23;;;;;;;15.93;10.48;;;;;;;17.76;43.17;100224.13;4422582;32;34576;-50
2021/10/16 10:36:52;;;;;;;14.80;9.98;;;;;;;17.77;43.25;100220.63;4422475;32;33955;-49
2021/10/16 10:39:32;;;;;;;16.70;10.60;;;;;;;17.77;43.89;100223.25;4422405;32;36352;-49
2021/10/16 10:42:13;;;;;;;15.82;10.57;;;;;;;17.84;43.79;100222.22;4422427;32;34408;-48
2021/10/16 10:44:42;;;;;;;15.05;10.27;;;;;;;18.05;43.08;100224.34;4422367;32;33531;-52
2021/10/16 10:47:30;;;;;;;17.33;11.20;;;;;;;17.78;43.70;100227.59;4422652;32;34044;-49
2021/10/16 10:49:59;;;;;;;15.88;10.32;;;;;;;17.73;43.49;100215.47;4422578;32;35781;-51
2021/10/16 10:52:31;;;;;;;16.27;10.52;;;;;;;17.52;43.66;100222.91;4422298;32;35139;-53
2021/10/16 10:54:58;;;;;;;15.67;10.20;;;;;;;17.52;43.59;100215.03;4408608;32;34182;-51
2021/10/16 10:57:50;;;;;;;14.87;10.80;;;;;;;17.71;43.46;100209.38;4422198;32;34848;-49
2021/10/16 11:00:34;;;;;;;13.95;10.23;;;;;;;17.84;42.94;100209.06;4422475;32;34716;-51
2021/10/16 11:03:27;;;;;;;16.40;9.85;;;;;;;17.82;43.31;100199.47;4422276;32;34233;-49
2021/10/16 11:05:56;;;;;;;12.07;8.82;;;;;;;17.92;42.70;100199.22;4422057;32;33717;-55
2021/10/16 11:08:23;;;;;;;11.20;9.20;;;;;;;18.04;42.07;100204.16;4422076;32;34010;-51
2021/10/16 11:10:57;;;;;;;12.27;8.40;;;;;;;18.03;41.98;100196.31;4408001;32;34542;-55
2021/10/16 11:13:25;;;;;;;16.17;10.38;;;;;;;18.12;41.84;100194.34;4422082;32;34293;-51
2021/10/16 11:15:57;;;;;;;12.45;9.63;;;;;;;18.35;41.86;100192.91;4422012;32;34293;-53
2021/10/16 11:18:24;;;;;;;10.13;8.38;;;;;;;18.23;41.87;100184.41;4422015;32;33886;-51
2021/10/16 11:20:55;;;;;;;12.18;8.40;;;;;;;18.18;41.70;100190.69;4421903;32;34840;-51
2021/10/16 11:23:24;;;;;;;12.63;9.77;;;;;;;18.34;41.41;100181.50;4408146;32;34108;-49
2021/10/16 11:25:59;;;;;;;13.02;9.57;;;;;;;18.33;41.63;100185.03;4421978;32;34481;-50
2021/10/16 11:28:31;;;;;;;12.52;9.18;;;;;;;18.46;41.62;100180.34;4423924;32;34346;-50
2021/10/16 11:30:59;;;;;;;;;;;;;;;18.26;41.92;100179.06;4410305;32;34843;-53